sensor_id;sensor_type;location;lat;lon;timestamp;temperature;humidity
37844;DHT22;63793;57.632;18.292;2023-08-30T00:01:12;14.30;99.90
37844;DHT22;63793;57.632;18.292;2023-08-30T00:03:38;14.40;99.90
37844;DHT22;63793;57.632;18.292;2023-08-30T00:06:06;14.30;99.90
37844;DHT22;63793;57.632;18.292;2023-08-30T00:08:34;14.30;99.90
37844;DHT22;63793;57.632;18.292;2023-08-30T00:11:01;14.40;99.90
37844;DHT22;63793;57.632;18.292;2023-08-30T00:13:30;14.40;99.90
37844;DHT22;63793;57.632;18.292;2023-08-30T00:15:58;14.30;99.90
37844;DHT22;63793;57.632;18.292;2023-08-30T00:18:25;14.30;99.90
37844;DHT22;63793;57.632;18.292;2023-08-30T00:20:52;14.30;99.90
37844;DHT22;63793;57.632;18.292;2023-08-30T00:23:20;14.40;99.90
37844;DHT22;63793;57.632;18.292;2023-08-30T00:25:46;14.30;99.90
37844;DHT22;63793;57.632;18.292;2023-08-30T00:28:13;14.30;99.90
37844;DHT22;63793;57.632;18.292;2023-08-30T00:30:40;14.40;99.90
37844;DHT22;63793;57.632;18.292;2023-08-30T00:33:07;14.40;99.90
37844;DHT22;63793;57.632;18.292;2023-08-30T00:35:34;14.40;99.90
37844;DHT22;63793;57.632;18.292;2023-08-30T00:38:01;14.40;99.90
37844;DHT22;63793;57.632;18.292;2023-08-30T00:40:28;14.40;99.90
37844;DHT22;63793;57.632;18.292;2023-08-30T00:42:56;14.40;99.90
37844;DHT22;63793;57.632;18.292;2023-08-30T00:45:24;14.40;99.90
37844;DHT22;63793;57.632;18.292;2023-08-30T00:47:51;14.30;99.90
37844;DHT22;63793;57.632;18.292;2023-08-30T00:50:18;14.30;99.90
37844;DHT22;63793;57.632;18.292;2023-08-30T00:52:45;14.30;99.90
37844;DHT22;63793;57.632;18.292;2023-08-30T00:55:12;14.30;99.90
37844;DHT22;63793;57.632;18.292;2023-08-30T00:57:39;14.40;99.90
37844;DHT22;63793;57.632;18.292;2023-08-30T01:00:06;14.30;99.90
37844;DHT22;63793;57.632;18.292;2023-08-30T01:02:34;14.40;99.90
37844;DHT22;63793;57.632;18.292;2023-08-30T01:05:02;14.40;99.90
37844;DHT22;63793;57.632;18.292;2023-08-30T01:07:29;14.40;99.90
37844;DHT22;63793;57.632;18.292;2023-08-30T01:09:57;14.30;99.90
37844;DHT22;63793;57.632;18.292;2023-08-30T01:12:47;14.30;99.90
37844;DHT22;63793;57.632;18.292;2023-08-30T01:15:22;14.30;99.90
37844;DHT22;63793;57.632;18.292;2023-08-30T01:17:52;14.30;99.90
37844;DHT22;63793;57.632;18.292;2023-08-30T01:20:21;14.30;99.90
37844;DHT22;63793;57.632;18.292;2023-08-30T01:23:03;14.20;99.90
37844;DHT22;63793;57.632;18.292;2023-08-30T01:28:06;14.20;99.90
37844;DHT22;63793;57.632;18.292;2023-08-30T01:30:36;14.20;99.90
37844;DHT22;63793;57.632;18.292;2023-08-30T01:33:04;14.20;99.90
37844;DHT22;63793;57.632;18.292;2023-08-30T01:35:33;14.20;99.90
37844;DHT22;63793;57.632;18.292;2023-08-30T01:38:03;14.20;99.90
37844;DHT22;63793;57.632;18.292;2023-08-30T01:40:37;14.30;99.90
37844;DHT22;63793;57.632;18.292;2023-08-30T01:43:07;14.30;99.90
37844;DHT22;63793;57.632;18.292;2023-08-30T01:45:38;14.30;99.90
37844;DHT22;63793;57.632;18.292;2023-08-30T01:48:12;14.30;99.90
37844;DHT22;63793;57.632;18.292;2023-08-30T01:50:40;14.30;99.90
37844;DHT22;63793;57.632;18.292;2023-08-30T01:53:09;14.30;99.90
37844;DHT22;63793;57.632;18.292;2023-08-30T01:55:37;14.30;99.90
37844;DHT22;63793;57.632;18.292;2023-08-30T01:58:06;14.30;99.90
37844;DHT22;63793;57.632;18.292;2023-08-30T02:00:35;14.30;99.90
37844;DHT22;63793;57.632;18.292;2023-08-30T02:03:10;14.30;99.90
37844;DHT22;63793;57.632;18.292;2023-08-30T02:05:52;14.20;99.90
37844;DHT22;63793;57.632;18.292;2023-08-30T02:08:27;14.20;99.90
37844;DHT22;63793;57.632;18.292;2023-08-30T02:11:01;14.20;99.90
37844;DHT22;63793;57.632;18.292;2023-08-30T02:13:30;14.20;99.90
37844;DHT22;63793;57.632;18.292;2023-08-30T02:15:58;14.10;99.90
37844;DHT22;63793;57.632;18.292;2023-08-30T02:18:27;14.10;99.90
37844;DHT22;63793;57.632;18.292;2023-08-30T02:20:56;14.10;99.90
37844;DHT22;63793;57.632;18.292;2023-08-30T02:23:24;14.10;99.90
37844;DHT22;63793;57.632;18.292;2023-08-30T02:25:56;14.10;99.90
37844;DHT22;63793;57.632;18.292;2023-08-30T02:28:23;14.00;99.90
37844;DHT22;63793;57.632;18.292;2023-08-30T02:30:53;14.00;99.90
37844;DHT22;63793;57.632;18.292;2023-08-30T02:33:20;14.00;99.90
37844;DHT22;63793;57.632;18.292;2023-08-30T02:35:47;14.10;99.90
37844;DHT22;63793;57.632;18.292;2023-08-30T02:38:13;14.10;99.90
37844;DHT22;63793;57.632;18.292;2023-08-30T02:40:40;14.10;99.90
37844;DHT22;63793;57.632;18.292;2023-08-30T02:43:07;14.00;99.90
37844;DHT22;63793;57.632;18.292;2023-08-30T02:45:34;14.00;99.90
37844;DHT22;63793;57.632;18.292;2023-08-30T02:48:01;14.00;99.90
37844;DHT22;63793;57.632;18.292;2023-08-30T02:50:28;14.00;99.90
37844;DHT22;63793;57.632;18.292;2023-08-30T02:52:55;13.90;99.90
37844;DHT22;63793;57.632;18.292;2023-08-30T02:55:22;13.90;99.90
37844;DHT22;63793;57.632;18.292;2023-08-30T02:57:49;13.90;99.90
37844;DHT22;63793;57.632;18.292;2023-08-30T03:00:16;13.90;99.90
37844;DHT22;63793;57.632;18.292;2023-08-30T03:02:46;13.90;99.90
37844;DHT22;63793;57.632;18.292;2023-08-30T03:05:14;13.90;99.90
37844;DHT22;63793;57.632;18.292;2023-08-30T03:07:41;14.00;99.90
37844;DHT22;63793;57.632;18.292;2023-08-30T03:10:09;13.90;99.90
37844;DHT22;63793;57.632;18.292;2023-08-30T03:12:36;14.00;99.90
37844;DHT22;63793;57.632;18.292;2023-08-30T03:15:04;14.00;99.90
37844;DHT22;63793;57.632;18.292;2023-08-30T03:17:31;13.90;99.90
37844;DHT22;63793;57.632;18.292;2023-08-30T03:19:59;13.90;99.90
37844;DHT22;63793;57.632;18.292;2023-08-30T03:22:28;13.90;99.90
37844;DHT22;63793;57.632;18.292;2023-08-30T03:24:55;13.90;99.90
37844;DHT22;63793;57.632;18.292;2023-08-30T03:27:22;13.90;99.90
37844;DHT22;63793;57.632;18.292;2023-08-30T03:29:49;13.90;99.90
37844;DHT22;63793;57.632;18.292;2023-08-30T03:32:17;13.90;99.90
37844;DHT22;63793;57.632;18.292;2023-08-30T03:34:48;13.90;99.90
37844;DHT22;63793;57.632;18.292;2023-08-30T03:37:17;13.90;99.90
37844;DHT22;63793;57.632;18.292;2023-08-30T03:39:44;13.90;99.90
37844;DHT22;63793;57.632;18.292;2023-08-30T03:42:11;13.90;99.90
37844;DHT22;63793;57.632;18.292;2023-08-30T03:44:38;13.90;99.90
37844;DHT22;63793;57.632;18.292;2023-08-30T03:47:06;14.00;99.90
37844;DHT22;63793;57.632;18.292;2023-08-30T03:49:34;13.90;99.90
37844;DHT22;63793;57.632;18.292;2023-08-30T03:52:01;13.90;99.90
37844;DHT22;63793;57.632;18.292;2023-08-30T03:54:28;14.00;99.90
37844;DHT22;63793;57.632;18.292;2023-08-30T03:56:55;14.00;99.90
37844;DHT22;63793;57.632;18.292;2023-08-30T03:59:22;14.00;99.90
37844;DHT22;63793;57.632;18.292;2023-08-30T04:01:53;14.00;99.90
37844;DHT22;63793;57.632;18.292;2023-08-30T04:04:20;14.00;99.90
37844;DHT22;63793;57.632;18.292;2023-08-30T04:06:47;14.00;99.90
37844;DHT22;63793;57.632;18.292;2023-08-30T04:09:15;13.90;99.90
37844;DHT22;63793;57.632;18.292;2023-08-30T04:11:43;14.00;99.90
37844;DHT22;63793;57.632;18.292;2023-08-30T04:14:10;14.00;99.90
37844;DHT22;63793;57.632;18.292;2023-08-30T04:16:37;14.00;99.90
37844;DHT22;63793;57.632;18.292;2023-08-30T04:19:06;14.00;99.90
37844;DHT22;63793;57.632;18.292;2023-08-30T04:21:33;14.10;99.90
37844;DHT22;63793;57.632;18.292;2023-08-30T04:24:00;14.10;99.90
37844;DHT22;63793;57.632;18.292;2023-08-30T04:26:27;14.10;99.90
37844;DHT22;63793;57.632;18.292;2023-08-30T04:28:55;14.20;99.90
37844;DHT22;63793;57.632;18.292;2023-08-30T04:31:22;14.20;99.90
37844;DHT22;63793;57.632;18.292;2023-08-30T04:33:49;14.20;99.90
37844;DHT22;63793;57.632;18.292;2023-08-30T04:36:21;14.20;99.90
37844;DHT22;63793;57.632;18.292;2023-08-30T04:38:48;14.20;99.90
37844;DHT22;63793;57.632;18.292;2023-08-30T04:41:28;14.20;99.90
37844;DHT22;63793;57.632;18.292;2023-08-30T04:43:54;14.20;99.90
37844;DHT22;63793;57.632;18.292;2023-08-30T04:46:21;14.20;99.90
37844;DHT22;63793;57.632;18.292;2023-08-30T04:48:48;14.20;99.90
37844;DHT22;63793;57.632;18.292;2023-08-30T04:51:16;14.20;99.90
37844;DHT22;63793;57.632;18.292;2023-08-30T04:53:43;14.10;99.90
37844;DHT22;63793;57.632;18.292;2023-08-30T04:56:13;14.00;99.90
37844;DHT22;63793;57.632;18.292;2023-08-30T04:58:40;14.00;99.90
37844;DHT22;63793;57.632;18.292;2023-08-30T05:01:09;14.00;99.90
37844;DHT22;63793;57.632;18.292;2023-08-30T05:03:40;14.00;99.90
37844;DHT22;63793;57.632;18.292;2023-08-30T05:06:09;14.00;99.90
37844;DHT22;63793;57.632;18.292;2023-08-30T05:08:36;14.00;99.90
37844;DHT22;63793;57.632;18.292;2023-08-30T05:11:03;14.00;99.90
37844;DHT22;63793;57.632;18.292;2023-08-30T05:13:33;14.00;99.90
37844;DHT22;63793;57.632;18.292;2023-08-30T05:16:00;14.00;99.90
37844;DHT22;63793;57.632;18.292;2023-08-30T05:18:27;14.00;99.90
37844;DHT22;63793;57.632;18.292;2023-08-30T05:20:54;14.10;99.90
37844;DHT22;63793;57.632;18.292;2023-08-30T05:23:21;14.10;99.90
37844;DHT22;63793;57.632;18.292;2023-08-30T05:25:48;14.20;99.90
37844;DHT22;63793;57.632;18.292;2023-08-30T05:28:16;14.20;99.90
37844;DHT22;63793;57.632;18.292;2023-08-30T05:30:43;14.30;99.90
37844;DHT22;63793;57.632;18.292;2023-08-30T05:33:28;14.30;99.90
37844;DHT22;63793;57.632;18.292;2023-08-30T05:36:09;14.30;99.90
37844;DHT22;63793;57.632;18.292;2023-08-30T05:38:51;14.30;99.90
37844;DHT22;63793;57.632;18.292;2023-08-30T05:41:33;14.40;99.90
37844;DHT22;63793;57.632;18.292;2023-08-30T05:43:59;14.40;99.90
37844;DHT22;63793;57.632;18.292;2023-08-30T05:46:26;14.50;99.90
37844;DHT22;63793;57.632;18.292;2023-08-30T05:48:53;14.50;99.90
37844;DHT22;63793;57.632;18.292;2023-08-30T05:51:22;14.50;99.90
37844;DHT22;63793;57.632;18.292;2023-08-30T05:53:50;14.50;99.90
37844;DHT22;63793;57.632;18.292;2023-08-30T05:56:17;14.50;99.90
37844;DHT22;63793;57.632;18.292;2023-08-30T05:58:44;14.40;99.90
37844;DHT22;63793;57.632;18.292;2023-08-30T06:01:11;14.50;99.90
37844;DHT22;63793;57.632;18.292;2023-08-30T06:03:38;14.40;99.90
37844;DHT22;63793;57.632;18.292;2023-08-30T06:06:05;14.40;99.90
37844;DHT22;63793;57.632;18.292;2023-08-30T06:08:32;14.40;99.90
37844;DHT22;63793;57.632;18.292;2023-08-30T06:10:59;14.30;99.90
37844;DHT22;63793;57.632;18.292;2023-08-30T06:13:25;14.30;99.90
37844;DHT22;63793;57.632;18.292;2023-08-30T06:15:52;14.30;99.90
37844;DHT22;63793;57.632;18.292;2023-08-30T06:18:19;14.40;99.90
37844;DHT22;63793;57.632;18.292;2023-08-30T06:20:47;14.40;99.90
37844;DHT22;63793;57.632;18.292;2023-08-30T06:23:18;14.50;99.90
37844;DHT22;63793;57.632;18.292;2023-08-30T06:25:53;14.50;99.90
37844;DHT22;63793;57.632;18.292;2023-08-30T06:28:20;14.50;99.90
37844;DHT22;63793;57.632;18.292;2023-08-30T06:30:47;14.60;99.90
37844;DHT22;63793;57.632;18.292;2023-08-30T06:33:14;14.60;99.90
37844;DHT22;63793;57.632;18.292;2023-08-30T06:35:41;14.60;99.90
37844;DHT22;63793;57.632;18.292;2023-08-30T06:38:09;14.60;99.90
37844;DHT22;63793;57.632;18.292;2023-08-30T06:40:37;14.60;99.90
37844;DHT22;63793;57.632;18.292;2023-08-30T06:43:09;14.70;99.90
37844;DHT22;63793;57.632;18.292;2023-08-30T06:45:36;14.70;99.90
37844;DHT22;63793;57.632;18.292;2023-08-30T06:48:04;14.70;99.90
37844;DHT22;63793;57.632;18.292;2023-08-30T06:50:31;14.70;99.90
37844;DHT22;63793;57.632;18.292;2023-08-30T06:52:58;14.80;99.90
37844;DHT22;63793;57.632;18.292;2023-08-30T06:55:27;14.80;99.90
37844;DHT22;63793;57.632;18.292;2023-08-30T06:57:55;14.80;99.90
37844;DHT22;63793;57.632;18.292;2023-08-30T07:00:22;14.90;99.90
37844;DHT22;63793;57.632;18.292;2023-08-30T07:02:49;14.90;99.90
37844;DHT22;63793;57.632;18.292;2023-08-30T07:05:16;14.90;99.90
37844;DHT22;63793;57.632;18.292;2023-08-30T07:07:43;14.90;99.90
37844;DHT22;63793;57.632;18.292;2023-08-30T07:10:10;15.00;99.90
37844;DHT22;63793;57.632;18.292;2023-08-30T07:12:37;15.10;99.90
37844;DHT22;63793;57.632;18.292;2023-08-30T07:15:04;15.10;99.90
37844;DHT22;63793;57.632;18.292;2023-08-30T07:17:31;15.20;99.90
37844;DHT22;63793;57.632;18.292;2023-08-30T07:20:16;15.20;99.90
37844;DHT22;63793;57.632;18.292;2023-08-30T07:22:43;15.20;99.90
37844;DHT22;63793;57.632;18.292;2023-08-30T07:25:10;15.20;99.90
37844;DHT22;63793;57.632;18.292;2023-08-30T07:27:38;15.20;99.90
37844;DHT22;63793;57.632;18.292;2023-08-30T07:30:06;15.20;99.90
37844;DHT22;63793;57.632;18.292;2023-08-30T07:32:34;15.20;99.90
37844;DHT22;63793;57.632;18.292;2023-08-30T07:35:03;15.30;99.90
37844;DHT22;63793;57.632;18.292;2023-08-30T07:37:30;15.40;99.90
37844;DHT22;63793;57.632;18.292;2023-08-30T07:39:57;15.50;99.90
37844;DHT22;63793;57.632;18.292;2023-08-30T07:42:24;15.60;99.90
37844;DHT22;63793;57.632;18.292;2023-08-30T07:44:51;15.60;99.90
37844;DHT22;63793;57.632;18.292;2023-08-30T07:47:18;15.60;99.90
37844;DHT22;63793;57.632;18.292;2023-08-30T07:49:45;15.60;99.90
37844;DHT22;63793;57.632;18.292;2023-08-30T07:52:12;15.70;99.90
37844;DHT22;63793;57.632;18.292;2023-08-30T07:54:40;15.80;99.90
37844;DHT22;63793;57.632;18.292;2023-08-30T07:57:08;15.80;99.90
37844;DHT22;63793;57.632;18.292;2023-08-30T07:59:38;15.80;99.90
37844;DHT22;63793;57.632;18.292;2023-08-30T08:02:06;15.80;99.90
37844;DHT22;63793;57.632;18.292;2023-08-30T08:04:34;15.80;99.90
37844;DHT22;63793;57.632;18.292;2023-08-30T08:07:02;15.80;99.90
37844;DHT22;63793;57.632;18.292;2023-08-30T08:09:31;15.80;99.90
37844;DHT22;63793;57.632;18.292;2023-08-30T08:11:58;15.80;99.90
37844;DHT22;63793;57.632;18.292;2023-08-30T08:14:25;15.80;99.90
37844;DHT22;63793;57.632;18.292;2023-08-30T08:16:52;15.80;99.90
37844;DHT22;63793;57.632;18.292;2023-08-30T08:19:19;15.80;99.90
37844;DHT22;63793;57.632;18.292;2023-08-30T08:21:52;15.80;99.90
37844;DHT22;63793;57.632;18.292;2023-08-30T08:24:21;15.90;99.90
37844;DHT22;63793;57.632;18.292;2023-08-30T08:26:48;15.90;99.90
37844;DHT22;63793;57.632;18.292;2023-08-30T08:29:15;15.90;99.90
37844;DHT22;63793;57.632;18.292;2023-08-30T08:31:42;16.00;99.90
37844;DHT22;63793;57.632;18.292;2023-08-30T08:34:12;16.00;99.90
37844;DHT22;63793;57.632;18.292;2023-08-30T08:36:41;16.00;99.90
37844;DHT22;63793;57.632;18.292;2023-08-30T08:39:08;16.10;99.90
37844;DHT22;63793;57.632;18.292;2023-08-30T08:41:41;16.20;99.90
37844;DHT22;63793;57.632;18.292;2023-08-30T08:44:10;16.30;99.90
37844;DHT22;63793;57.632;18.292;2023-08-30T08:46:39;16.30;99.90
37844;DHT22;63793;57.632;18.292;2023-08-30T08:49:12;16.30;99.90
37844;DHT22;63793;57.632;18.292;2023-08-30T08:51:41;16.20;99.90
37844;DHT22;63793;57.632;18.292;2023-08-30T08:54:11;16.10;99.90
37844;DHT22;63793;57.632;18.292;2023-08-30T08:56:39;16.10;99.90
37844;DHT22;63793;57.632;18.292;2023-08-30T08:59:06;16.00;99.90
37844;DHT22;63793;57.632;18.292;2023-08-30T09:01:35;15.90;99.90
37844;DHT22;63793;57.632;18.292;2023-08-30T09:04:08;15.90;99.90
37844;DHT22;63793;57.632;18.292;2023-08-30T09:06:36;16.00;99.90
37844;DHT22;63793;57.632;18.292;2023-08-30T09:09:04;16.00;99.90
37844;DHT22;63793;57.632;18.292;2023-08-30T09:11:32;16.10;99.90
37844;DHT22;63793;57.632;18.292;2023-08-30T09:14:16;16.20;99.90
37844;DHT22;63793;57.632;18.292;2023-08-30T09:16:57;16.30;99.90
37844;DHT22;63793;57.632;18.292;2023-08-30T09:19:25;16.40;99.90
37844;DHT22;63793;57.632;18.292;2023-08-30T09:21:56;16.50;99.90
37844;DHT22;63793;57.632;18.292;2023-08-30T09:24:23;16.50;99.90
37844;DHT22;63793;57.632;18.292;2023-08-30T09:26:54;16.60;99.90
37844;DHT22;63793;57.632;18.292;2023-08-30T09:29:22;16.70;99.90
37844;DHT22;63793;57.632;18.292;2023-08-30T09:31:52;16.70;99.90
37844;DHT22;63793;57.632;18.292;2023-08-30T09:34:24;16.80;99.90
37844;DHT22;63793;57.632;18.292;2023-08-30T09:36:53;16.80;99.90
37844;DHT22;63793;57.632;18.292;2023-08-30T09:39:20;16.80;99.90
37844;DHT22;63793;57.632;18.292;2023-08-30T09:41:49;16.80;99.90
37844;DHT22;63793;57.632;18.292;2023-08-30T09:44:18;16.80;99.90
37844;DHT22;63793;57.632;18.292;2023-08-30T09:49:23;16.90;99.90
37844;DHT22;63793;57.632;18.292;2023-08-30T09:51:51;17.00;99.90
37844;DHT22;63793;57.632;18.292;2023-08-30T09:54:21;17.00;99.90
37844;DHT22;63793;57.632;18.292;2023-08-30T09:57:05;17.00;99.90
37844;DHT22;63793;57.632;18.292;2023-08-30T09:59:33;17.10;99.90
37844;DHT22;63793;57.632;18.292;2023-08-30T10:02:00;17.20;99.90
37844;DHT22;63793;57.632;18.292;2023-08-30T10:04:28;17.30;99.90
37844;DHT22;63793;57.632;18.292;2023-08-30T10:06:57;17.40;99.90
37844;DHT22;63793;57.632;18.292;2023-08-30T10:09:26;17.50;99.90
37844;DHT22;63793;57.632;18.292;2023-08-30T10:11:57;17.50;99.90
37844;DHT22;63793;57.632;18.292;2023-08-30T10:14:25;17.50;99.90
37844;DHT22;63793;57.632;18.292;2023-08-30T10:16:56;17.50;99.90
37844;DHT22;63793;57.632;18.292;2023-08-30T10:19:27;17.50;99.90
37844;DHT22;63793;57.632;18.292;2023-08-30T10:22:04;17.40;99.90
37844;DHT22;63793;57.632;18.292;2023-08-30T10:24:58;17.30;99.90
37844;DHT22;63793;57.632;18.292;2023-08-30T10:27:41;17.30;99.90
37844;DHT22;63793;57.632;18.292;2023-08-30T10:30:10;17.30;99.90
37844;DHT22;63793;57.632;18.292;2023-08-30T10:32:44;17.30;99.90
37844;DHT22;63793;57.632;18.292;2023-08-30T10:35:15;17.30;99.90
37844;DHT22;63793;57.632;18.292;2023-08-30T10:37:55;17.30;99.90
37844;DHT22;63793;57.632;18.292;2023-08-30T10:40:22;17.20;99.90
37844;DHT22;63793;57.632;18.292;2023-08-30T10:42:59;17.30;99.90
37844;DHT22;63793;57.632;18.292;2023-08-30T10:45:27;17.30;99.90
37844;DHT22;63793;57.632;18.292;2023-08-30T10:47:57;17.40;99.90
37844;DHT22;63793;57.632;18.292;2023-08-30T10:50:33;17.50;99.90
37844;DHT22;63793;57.632;18.292;2023-08-30T10:53:00;17.60;99.90
37844;DHT22;63793;57.632;18.292;2023-08-30T10:55:27;17.70;99.90
37844;DHT22;63793;57.632;18.292;2023-08-30T10:58:02;17.90;99.90
37844;DHT22;63793;57.632;18.292;2023-08-30T11:00:30;18.00;99.90
37844;DHT22;63793;57.632;18.292;2023-08-30T11:02:57;17.90;99.90
37844;DHT22;63793;57.632;18.292;2023-08-30T11:05:25;17.70;99.90
37844;DHT22;63793;57.632;18.292;2023-08-30T11:07:53;17.60;99.90
37844;DHT22;63793;57.632;18.292;2023-08-30T11:10:21;17.40;99.90
37844;DHT22;63793;57.632;18.292;2023-08-30T11:12:49;17.30;99.90
37844;DHT22;63793;57.632;18.292;2023-08-30T11:15:17;17.10;99.90
37844;DHT22;63793;57.632;18.292;2023-08-30T11:17:45;17.00;99.90
37844;DHT22;63793;57.632;18.292;2023-08-30T11:20:14;17.00;99.90
37844;DHT22;63793;57.632;18.292;2023-08-30T11:22:48;17.00;99.90
37844;DHT22;63793;57.632;18.292;2023-08-30T11:25:16;17.00;99.90
37844;DHT22;63793;57.632;18.292;2023-08-30T11:27:44;17.10;99.90
37844;DHT22;63793;57.632;18.292;2023-08-30T11:30:11;17.10;99.90
37844;DHT22;63793;57.632;18.292;2023-08-30T11:32:40;17.20;99.90
37844;DHT22;63793;57.632;18.292;2023-08-30T11:35:10;17.40;99.90
37844;DHT22;63793;57.632;18.292;2023-08-30T11:37:37;17.50;99.90
37844;DHT22;63793;57.632;18.292;2023-08-30T11:40:04;17.50;99.90
37844;DHT22;63793;57.632;18.292;2023-08-30T11:42:33;17.40;99.90
37844;DHT22;63793;57.632;18.292;2023-08-30T11:45:01;17.50;99.90
37844;DHT22;63793;57.632;18.292;2023-08-30T11:47:28;17.50;99.90
37844;DHT22;63793;57.632;18.292;2023-08-30T11:49:56;17.60;99.90
37844;DHT22;63793;57.632;18.292;2023-08-30T11:52:24;17.60;99.90
37844;DHT22;63793;57.632;18.292;2023-08-30T11:54:52;17.70;99.90
37844;DHT22;63793;57.632;18.292;2023-08-30T11:57:19;17.70;99.90
37844;DHT22;63793;57.632;18.292;2023-08-30T11:59:47;17.70;99.90
37844;DHT22;63793;57.632;18.292;2023-08-30T12:02:16;17.70;99.90
37844;DHT22;63793;57.632;18.292;2023-08-30T12:04:45;17.70;99.90
37844;DHT22;63793;57.632;18.292;2023-08-30T12:07:26;17.70;99.90
37844;DHT22;63793;57.632;18.292;2023-08-30T12:10:10;17.70;99.90
37844;DHT22;63793;57.632;18.292;2023-08-30T12:12:38;17.70;99.90
37844;DHT22;63793;57.632;18.292;2023-08-30T12:15:09;17.80;99.90
37844;DHT22;63793;57.632;18.292;2023-08-30T12:17:36;17.80;99.90
37844;DHT22;63793;57.632;18.292;2023-08-30T12:20:04;17.90;99.90
37844;DHT22;63793;57.632;18.292;2023-08-30T12:22:38;17.90;99.90
37844;DHT22;63793;57.632;18.292;2023-08-30T12:25:21;17.90;99.90
37844;DHT22;63793;57.632;18.292;2023-08-30T12:27:50;17.80;99.90
37844;DHT22;63793;57.632;18.292;2023-08-30T12:30:17;17.70;99.90
37844;DHT22;63793;57.632;18.292;2023-08-30T12:32:45;17.60;99.90
37844;DHT22;63793;57.632;18.292;2023-08-30T12:35:13;17.50;99.90
37844;DHT22;63793;57.632;18.292;2023-08-30T12:37:40;17.50;99.90
37844;DHT22;63793;57.632;18.292;2023-08-30T12:40:07;17.50;99.90
37844;DHT22;63793;57.632;18.292;2023-08-30T12:42:34;17.60;99.90
37844;DHT22;63793;57.632;18.292;2023-08-30T12:45:01;17.60;99.90
37844;DHT22;63793;57.632;18.292;2023-08-30T12:47:28;17.70;99.90
37844;DHT22;63793;57.632;18.292;2023-08-30T12:49:55;17.70;99.90
37844;DHT22;63793;57.632;18.292;2023-08-30T12:52:22;17.70;99.90
37844;DHT22;63793;57.632;18.292;2023-08-30T12:54:49;17.70;99.90
37844;DHT22;63793;57.632;18.292;2023-08-30T12:57:19;17.60;99.90
37844;DHT22;63793;57.632;18.292;2023-08-30T12:59:45;17.70;99.90
37844;DHT22;63793;57.632;18.292;2023-08-30T13:02:13;17.70;99.90
37844;DHT22;63793;57.632;18.292;2023-08-30T13:04:40;17.80;99.90
37844;DHT22;63793;57.632;18.292;2023-08-30T13:07:07;17.90;99.90
37844;DHT22;63793;57.632;18.292;2023-08-30T13:09:34;18.00;99.90
37844;DHT22;63793;57.632;18.292;2023-08-30T13:12:01;18.00;99.90
37844;DHT22;63793;57.632;18.292;2023-08-30T13:14:28;18.10;99.90
37844;DHT22;63793;57.632;18.292;2023-08-30T13:16:55;18.10;99.90
37844;DHT22;63793;57.632;18.292;2023-08-30T13:19:22;18.10;99.90
37844;DHT22;63793;57.632;18.292;2023-08-30T13:21:49;18.10;99.90
37844;DHT22;63793;57.632;18.292;2023-08-30T13:24:15;18.20;99.90
37844;DHT22;63793;57.632;18.292;2023-08-30T13:26:42;18.20;99.90
37844;DHT22;63793;57.632;18.292;2023-08-30T13:29:09;18.10;99.90
37844;DHT22;63793;57.632;18.292;2023-08-30T13:31:36;17.90;99.90
37844;DHT22;63793;57.632;18.292;2023-08-30T13:34:03;17.90;99.90
37844;DHT22;63793;57.632;18.292;2023-08-30T13:36:30;17.90;99.90
37844;DHT22;63793;57.632;18.292;2023-08-30T13:38:59;17.80;99.90
37844;DHT22;63793;57.632;18.292;2023-08-30T13:41:25;17.80;99.90
37844;DHT22;63793;57.632;18.292;2023-08-30T13:43:53;17.80;99.90
37844;DHT22;63793;57.632;18.292;2023-08-30T13:46:23;17.80;99.90
37844;DHT22;63793;57.632;18.292;2023-08-30T13:48:50;17.70;99.90
37844;DHT22;63793;57.632;18.292;2023-08-30T13:51:24;17.70;99.90
37844;DHT22;63793;57.632;18.292;2023-08-30T13:53:51;17.60;99.90
37844;DHT22;63793;57.632;18.292;2023-08-30T13:56:19;17.60;99.90
37844;DHT22;63793;57.632;18.292;2023-08-30T13:58:46;17.60;99.90
37844;DHT22;63793;57.632;18.292;2023-08-30T14:01:13;17.60;99.90
37844;DHT22;63793;57.632;18.292;2023-08-30T14:03:41;17.60;99.90
37844;DHT22;63793;57.632;18.292;2023-08-30T14:06:08;17.60;99.90
37844;DHT22;63793;57.632;18.292;2023-08-30T14:08:35;17.40;99.90
37844;DHT22;63793;57.632;18.292;2023-08-30T14:11:02;17.40;99.90
37844;DHT22;63793;57.632;18.292;2023-08-30T14:13:31;17.30;99.90
37844;DHT22;63793;57.632;18.292;2023-08-30T14:16:03;17.20;99.90
37844;DHT22;63793;57.632;18.292;2023-08-30T14:18:33;17.20;99.90
37844;DHT22;63793;57.632;18.292;2023-08-30T14:21:00;17.20;99.90
37844;DHT22;63793;57.632;18.292;2023-08-30T14:23:28;17.20;99.90
37844;DHT22;63793;57.632;18.292;2023-08-30T14:25:59;17.20;99.90
37844;DHT22;63793;57.632;18.292;2023-08-30T14:28:27;17.10;99.90
37844;DHT22;63793;57.632;18.292;2023-08-30T14:30:54;17.00;99.90
37844;DHT22;63793;57.632;18.292;2023-08-30T14:33:21;17.00;99.90
37844;DHT22;63793;57.632;18.292;2023-08-30T14:35:48;16.90;99.90
37844;DHT22;63793;57.632;18.292;2023-08-30T14:38:15;16.80;99.90
37844;DHT22;63793;57.632;18.292;2023-08-30T14:40:42;16.70;99.90
37844;DHT22;63793;57.632;18.292;2023-08-30T14:43:09;16.70;99.90
37844;DHT22;63793;57.632;18.292;2023-08-30T14:45:36;16.70;99.90
37844;DHT22;63793;57.632;18.292;2023-08-30T14:48:03;16.60;99.90
37844;DHT22;63793;57.632;18.292;2023-08-30T14:50:30;16.60;99.90
37844;DHT22;63793;57.632;18.292;2023-08-30T14:52:57;16.60;99.90
37844;DHT22;63793;57.632;18.292;2023-08-30T14:55:24;16.70;99.90
37844;DHT22;63793;57.632;18.292;2023-08-30T14:57:52;16.70;99.90
37844;DHT22;63793;57.632;18.292;2023-08-30T15:00:19;16.70;99.90
37844;DHT22;63793;57.632;18.292;2023-08-30T15:02:46;16.70;99.90
37844;DHT22;63793;57.632;18.292;2023-08-30T15:05:14;16.60;99.90
37844;DHT22;63793;57.632;18.292;2023-08-30T15:07:41;16.60;99.90
37844;DHT22;63793;57.632;18.292;2023-08-30T15:10:08;16.70;99.90
37844;DHT22;63793;57.632;18.292;2023-08-30T15:12:35;16.70;99.90
37844;DHT22;63793;57.632;18.292;2023-08-30T15:15:02;16.80;99.90
37844;DHT22;63793;57.632;18.292;2023-08-30T15:17:29;16.80;99.90
37844;DHT22;63793;57.632;18.292;2023-08-30T15:19:56;16.80;99.90
37844;DHT22;63793;57.632;18.292;2023-08-30T15:22:23;16.70;99.90
37844;DHT22;63793;57.632;18.292;2023-08-30T15:24:50;16.70;99.90
37844;DHT22;63793;57.632;18.292;2023-08-30T15:27:16;16.80;99.90
37844;DHT22;63793;57.632;18.292;2023-08-30T15:29:43;16.70;99.90